Time;durP1;ratioP1;P1;durP2;ratioP2;P2;SDS_P1;SDS_P2;PMS_P1;PMS_P2;Temp;Humidity;BMP_temperature;BMP_pressure;BME280_temperature;BME280_humidity;BME280_pressure;Samples;Min_cycle;Max_cycle;Signal;HPM_P1;HPM_P2
2022/03/11 00:01:54;;;;;;;6.57;5.97;;;;;;;;;;5067040;28;20191;-73
2022/03/11 00:04:21;;;;;;;7.90;5.25;;;;;;;;;;5071259;28;20198;-75
2022/03/11 00:06:48;;;;;;;7.20;5.40;;;;;;;;;;5059309;28;20202;-75
2022/03/11 00:09:15;;;;;;;8.60;6.78;;;;;;;;;;5064112;28;20202;-74
2022/03/11 00:11:42;;;;;;;9.60;7.47;;;;;;;;;;5070419;28;20189;-74
2022/03/11 00:14:10;;;;;;;8.63;5.35;;;;;;;;;;5068491;28;20190;-73
2022/03/11 00:16:37;;;;;;;8.73;6.55;;;;;;;;;;5070198;28;20580;-73
2022/03/11 00:19:04;;;;;;;7.63;6.80;;;;;;;;;;5064715;28;20194;-74
2022/03/11 00:21:32;;;;;;;7.65;5.80;;;;;;;;;;5074341;28;20197;-74
2022/03/11 00:23:59;;;;;;;9.88;6.72;;;;;;;;;;5067852;28;20687;-73
2022/03/11 00:26:26;;;;;;;8.40;6.72;;;;;;;;;;5068279;28;20213;-74
2022/03/11 00:28:53;;;;;;;8.57;6.45;;;;;;;;;;5066766;28;20190;-73
2022/03/11 00:31:21;;;;;;;8.85;6.78;;;;;;;;;;5065162;28;20569;-74
2022/03/11 00:33:48;;;;;;;9.00;7.22;;;;;;;;;;5062540;28;20198;-75
2022/03/11 00:36:15;;;;;;;7.47;5.68;;;;;;;;;;5060842;28;20218;-73
2022/03/11 00:38:42;;;;;;;7.00;5.72;;;;;;;;;;5062463;28;20194;-74
2022/03/11 00:41:09;;;;;;;7.72;6.55;;;;;;;;;;5068947;28;20194;-74
2022/03/11 00:43:36;;;;;;;7.38;6.55;;;;;;;;;;5061178;28;20194;-74
2022/03/11 00:46:04;;;;;;;10.50;6.18;;;;;;;;;;5063970;28;20221;-73
2022/03/11 00:48:32;;;;;;;9.13;6.47;;;;;;;;;;5067893;28;20232;-72
2022/03/11 00:50:59;;;;;;;8.38;6.35;;;;;;;;;;5063973;28;20640;-74
2022/03/11 00:53:27;;;;;;;8.40;6.30;;;;;;;;;;5064709;28;20201;-72
2022/03/11 00:55:54;;;;;;;8.25;5.72;;;;;;;;;;5068991;28;20295;-73
2022/03/11 00:58:21;;;;;;;7.90;5.95;;;;;;;;;;5066191;28;20193;-72
2022/03/11 01:00:49;;;;;;;7.82;5.50;;;;;;;;;;5058667;28;20553;-73
2022/03/11 01:03:16;;;;;;;7.65;5.57;;;;;;;;;;5068827;28;20198;-73
2022/03/11 01:05:44;;;;;;;8.35;6.20;;;;;;;;;;5068550;28;20198;-73
2022/03/11 01:08:11;;;;;;;6.80;5.93;;;;;;;;;;5061459;28;20213;-73
2022/03/11 01:10:38;;;;;;;9.65;6.80;;;;;;;;;;5067719;28;20201;-73
2022/03/11 01:13:07;;;;;;;10.50;6.93;;;;;;;;;;5067334;28;20237;-74
2022/03/11 01:15:34;;;;;;;8.18;5.70;;;;;;;;;;5061245;28;20229;-74
2022/03/11 01:18:01;;;;;;;6.90;5.25;;;;;;;;;;5055719;28;20213;-73
2022/03/11 01:20:28;;;;;;;7.85;5.57;;;;;;;;;;5060938;28;20561;-74
2022/03/11 01:22:56;;;;;;;8.57;5.95;;;;;;;;;;5062334;28;20198;-73
2022/03/11 01:25:23;;;;;;;6.93;4.90;;;;;;;;;;5065731;28;20225;-74
2022/03/11 01:27:50;;;;;;;7.03;4.88;;;;;;;;;;5086545;28;20599;-73
2022/03/11 01:30:17;;;;;;;6.63;5.97;;;;;;;;;;5061868;28;20193;-73
2022/03/11 01:32:45;;;;;;;7.82;5.97;;;;;;;;;;5069574;28;20194;-73
2022/03/11 01:35:12;;;;;;;9.15;5.97;;;;;;;;;;5063654;28;20218;-74
2022/03/11 01:37:39;;;;;;;9.80;6.13;;;;;;;;;;5060111;28;20205;-73
2022/03/11 01:40:08;;;;;;;7.15;5.63;;;;;;;;;;5070191;28;20668;-74
2022/03/11 01:42:36;;;;;;;7.72;5.93;;;;;;;;;;5070441;28;20209;-74
2022/03/11 01:45:04;;;;;;;8.55;5.80;;;;;;;;;;5071132;28;20259;-75
2022/03/11 01:47:31;;;;;;;9.55;7.22;;;;;;;;;;5070582;28;20194;-73
2022/03/11 01:49:58;;;;;;;9.05;6.10;;;;;;;;;;5068269;28;20319;-74
2022/03/11 01:52:25;;;;;;;9.82;6.38;;;;;;;;;;5058890;28;20641;-74
2022/03/11 01:54:52;;;;;;;7.03;5.20;;;;;;;;;;5063638;28;20198;-74
2022/03/11 01:57:21;;;;;;;9.60;6.00;;;;;;;;;;5065257;28;20225;-74
2022/03/11 01:59:48;;;;;;;6.88;5.43;;;;;;;;;;5069334;28;20541;-74
2022/03/11 02:02:15;;;;;;;7.15;6.25;;;;;;;;;;5067720;28;20202;-74
2022/03/11 02:04:43;;;;;;;6.95;5.50;;;;;;;;;;5072106;28;20240;-74
2022/03/11 02:07:10;;;;;;;7.35;5.63;;;;;;;;;;5068537;28;20247;-76
2022/03/11 02:09:37;;;;;;;9.57;7.35;;;;;;;;;;5069890;28;20190;-74
2022/03/11 02:12:04;;;;;;;8.60;6.47;;;;;;;;;;5071189;28;20202;-76
2022/03/11 02:14:33;;;;;;;8.77;6.70;;;;;;;;;;5066669;28;20206;-73
2022/03/11 02:17:00;;;;;;;8.02;6.18;;;;;;;;;;5069912;28;20308;-74
2022/03/11 02:19:27;;;;;;;7.72;6.30;;;;;;;;;;5066240;28;20850;-74
2022/03/11 02:21:57;;;;;;;6.80;5.57;;;;;;;;;;5067393;28;20190;-74
2022/03/11 02:24:27;;;;;;;8.68;6.75;;;;;;;;;;5074756;28;20597;-75
2022/03/11 02:26:55;;;;;;;8.02;6.47;;;;;;;;;;5064037;28;20230;-75
2022/03/11 02:29:22;;;;;;;8.63;6.28;;;;;;;;;;5067343;28;20217;-74
2022/03/11 02:31:49;;;;;;;13.60;8.35;;;;;;;;;;5071113;28;20222;-74
2022/03/11 02:34:16;;;;;;;8.82;6.10;;;;;;;;;;5067134;28;20653;-74
2022/03/11 02:36:43;;;;;;;9.20;6.53;;;;;;;;;;5069468;28;20583;-74
2022/03/11 02:39:10;;;;;;;9.27;8.18;;;;;;;;;;5059521;28;20213;-74
2022/03/11 02:41:42;;;;;;;8.23;6.20;;;;;;;;;;5068838;28;20194;-73
2022/03/11 02:44:10;;;;;;;8.40;6.40;;;;;;;;;;5068261;28;20194;-72
2022/03/11 02:46:37;;;;;;;8.35;5.95;;;;;;;;;;5070798;28;20206;-74
2022/03/11 02:49:04;;;;;;;10.40;7.10;;;;;;;;;;5072338;28;20197;-74
2022/03/11 02:51:31;;;;;;;9.98;6.30;;;;;;;;;;5070335;28;20248;-73
2022/03/11 02:53:58;;;;;;;7.78;6.07;;;;;;;;;;5065754;28;20199;-74
2022/03/11 02:56:25;;;;;;;10.27;6.90;;;;;;;;;;5059315;28;21893;-74
2022/03/11 02:58:53;;;;;;;8.60;7.13;;;;;;;;;;5066844;28;20650;-74
2022/03/11 03:01:20;;;;;;;11.20;6.55;;;;;;;;;;5065634;28;20650;-73
2022/03/11 03:03:47;;;;;;;8.73;5.70;;;;;;;;;;5067028;28;20190;-73
2022/03/11 03:06:14;;;;;;;7.35;6.13;;;;;;;;;;5068637;28;20203;-74
2022/03/11 03:08:42;;;;;;;6.53;5.18;;;;;;;;;;5068207;28;20194;-74
2022/03/11 03:11:09;;;;;;;6.88;5.18;;;;;;;;;;5069037;28;20198;-75
2022/03/11 03:13:36;;;;;;;10.02;6.55;;;;;;;;;;5068699;28;20194;-74
2022/03/11 03:16:04;;;;;;;11.27;6.93;;;;;;;;;;5063477;28;20222;-75
2022/03/11 03:18:31;;;;;;;8.25;6.43;;;;;;;;;;5073699;28;20205;-74
2022/03/11 03:20:58;;;;;;;8.75;6.40;;;;;;;;;;5067859;28;20209;-74
2022/03/11 03:23:26;;;;;;;10.20;8.00;;;;;;;;;;5066499;28;20222;-74
2022/03/11 03:25:53;;;;;;;6.97;6.28;;;;;;;;;;5062781;28;20194;-74
2022/03/11 03:28:20;;;;;;;9.27;6.43;;;;;;;;;;5063703;28;20217;-74
2022/03/11 03:30:47;;;;;;;10.27;5.50;;;;;;;;;;5063752;28;20199;-74
2022/03/11 03:33:16;;;;;;;9.00;6.50;;;;;;;;;;5063359;28;20233;-73
2022/03/11 03:35:43;;;;;;;7.20;5.53;;;;;;;;;;5067208;28;20811;-74
2022/03/11 03:38:10;;;;;;;10.75;6.95;;;;;;;;;;5060637;28;20205;-74
2022/03/11 03:40:37;;;;;;;8.30;7.00;;;;;;;;;;5066567;28;20205;-73
2022/03/11 03:43:04;;;;;;;9.57;7.00;;;;;;;;;;5066225;28;20194;-74
2022/03/11 03:45:31;;;;;;;8.38;6.35;;;;;;;;;;5062282;28;20202;-73
2022/03/11 03:47:59;;;;;;;10.57;5.90;;;;;;;;;;5069116;28;20198;-74
2022/03/11 03:50:27;;;;;;;7.88;6.47;;;;;;;;;;5065457;28;20816;-73
2022/03/11 03:52:55;;;;;;;8.90;6.75;;;;;;;;;;5064371;28;20198;-73
2022/03/11 03:55:22;;;;;;;8.73;6.07;;;;;;;;;;5071203;28;20285;-73
2022/03/11 03:57:49;;;;;;;10.50;6.80;;;;;;;;;;5062789;28;20233;-74
2022/03/11 04:00:16;;;;;;;11.68;7.05;;;;;;;;;;5054320;28;20202;-73
2022/03/11 04:02:46;;;;;;;6.75;5.90;;;;;;;;;;5068578;28;20201;-74
2022/03/11 04:05:14;;;;;;;8.07;6.13;;;;;;;;;;5070359;28;20692;-75
2022/03/11 04:07:43;;;;;;;7.78;6.38;;;;;;;;;;5067621;28;20207;-74
2022/03/11 04:10:10;;;;;;;6.57;5.88;;;;;;;;;;5069959;28;20198;-74
2022/03/11 04:12:37;;;;;;;10.40;6.32;;;;;;;;;;5068025;28;20202;-73
2022/03/11 04:15:05;;;;;;;10.13;6.80;;;;;;;;;;5065814;28;20200;-74
2022/03/11 04:17:32;;;;;;;9.70;6.55;;;;;;;;;;5070607;28;20229;-73
2022/03/11 04:19:59;;;;;;;7.57;6.35;;;;;;;;;;5069393;28;20653;-73
2022/03/11 04:22:26;;;;;;;9.55;6.43;;;;;;;;;;5060430;28;20277;-73
2022/03/11 04:24:55;;;;;;;7.40;5.40;;;;;;;;;;5069286;28;20222;-72
2022/03/11 04:27:22;;;;;;;9.95;6.55;;;;;;;;;;5069795;28;20202;-72
2022/03/11 04:29:49;;;;;;;8.52;6.20;;;;;;;;;;5061349;28;20628;-72
2022/03/11 04:32:16;;;;;;;10.13;5.97;;;;;;;;;;5067177;28;20186;-73
2022/03/11 04:34:43;;;;;;;10.32;6.15;;;;;;;;;;5070646;28;20585;-73
2022/03/11 04:37:10;;;;;;;9.60;6.05;;;;;;;;;;5069987;28;20236;-73
2022/03/11 04:39:37;;;;;;;8.07;6.75;;;;;;;;;;5066387;28;20202;-75
2022/03/11 04:42:09;;;;;;;11.13;7.00;;;;;;;;;;5069914;28;20564;-75
2022/03/11 04:44:36;;;;;;;9.18;6.35;;;;;;;;;;5063786;28;20190;-73
2022/03/11 04:47:04;;;;;;;10.05;7.00;;;;;;;;;;5061352;28;20201;-73
2022/03/11 04:49:31;;;;;;;12.00;8.80;;;;;;;;;;5068873;28;20205;-73
2022/03/11 04:51:58;;;;;;;10.57;7.43;;;;;;;;;;5063167;28;20194;-73
2022/03/11 04:54:25;;;;;;;9.40;6.53;;;;;;;;;;5063524;28;20194;-73
2022/03/11 04:56:52;;;;;;;8.85;6.88;;;;;;;;;;5069213;28;20572;-73
2022/03/11 04:59:20;;;;;;;8.88;6.55;;;;;;;;;;5065839;28;20228;-73
2022/03/11 05:01:47;;;;;;;14.48;7.95;;;;;;;;;;5074044;28;20209;-72
2022/03/11 05:04:14;;;;;;;10.60;7.00;;;;;;;;;;5072243;28;20948;-73
2022/03/11 05:06:41;;;;;;;11.40;7.97;;;;;;;;;;5063995;28;20202;-74
2022/03/11 05:09:08;;;;;;;14.27;8.18;;;;;;;;;;5066564;28;20210;-75
2022/03/11 05:11:36;;;;;;;9.18;6.95;;;;;;;;;;5065497;28;20193;-74
2022/03/11 05:14:03;;;;;;;12.57;6.90;;;;;;;;;;5064605;28;20649;-73
2022/03/11 05:16:32;;;;;;;10.60;7.18;;;;;;;;;;5073423;28;20221;-73
2022/03/11 05:18:59;;;;;;;9.40;7.28;;;;;;;;;;5071264;28;20206;-73
2022/03/11 05:21:26;;;;;;;12.15;8.20;;;;;;;;;;5057294;28;20202;-74
2022/03/11 05:23:53;;;;;;;11.68;7.32;;;;;;;;;;5069581;28;20256;-74
2022/03/11 05:26:28;;;;;;;11.07;7.68;;;;;;;;;;5056127;28;20202;-74
2022/03/11 05:28:55;;;;;;;9.05;7.97;;;;;;;;;;5054837;28;20552;-74
2022/03/11 05:31:23;;;;;;;13.05;7.65;;;;;;;;;;5070546;28;20198;-73
2022/03/11 05:33:52;;;;;;;11.35;7.53;;;;;;;;;;5065492;28;20676;-73
2022/03/11 05:36:19;;;;;;;11.55;7.70;;;;;;;;;;5068598;28;21472;-73
2022/03/11 05:38:46;;;;;;;8.52;6.80;;;;;;;;;;5069378;28;20568;-74
2022/03/11 05:41:13;;;;;;;10.45;7.35;;;;;;;;;;5072014;28;20209;-73
2022/03/11 05:43:41;;;;;;;14.15;8.63;;;;;;;;;;5066825;28;20566;-73
2022/03/11 05:46:08;;;;;;;8.52;6.35;;;;;;;;;;5071921;28;20201;-74
2022/03/11 05:48:35;;;;;;;10.18;6.97;;;;;;;;;;5073701;28;20561;-73
2022/03/11 05:51:04;;;;;;;8.70;7.47;;;;;;;;;;5072588;28;20201;-74
2022/03/11 05:53:31;;;;;;;12.45;8.32;;;;;;;;;;5063472;28;20194;-74
2022/03/11 05:55:58;;;;;;;9.27;8.10;;;;;;;;;;5072982;28;20198;-75
2022/03/11 05:58:25;;;;;;;10.95;7.90;;;;;;;;;;5068998;28;20237;-74
2022/03/11 06:00:52;;;;;;;12.48;8.57;;;;;;;;;;5060270;28;20193;-74
2022/03/11 06:03:20;;;;;;;10.27;7.07;;;;;;;;;;5072304;28;20193;-74
2022/03/11 06:05:47;;;;;;;12.02;8.07;;;;;;;;;;5071816;28;20268;-74
2022/03/11 06:08:16;;;;;;;11.43;8.80;;;;;;;;;;5067882;28;20197;-74
2022/03/11 06:10:44;;;;;;;13.80;8.73;;;;;;;;;;5071101;28;20194;-73
2022/03/11 06:13:12;;;;;;;10.05;8.25;;;;;;;;;;5066195;28;20225;-73
2022/03/11 06:15:39;;;;;;;15.07;9.43;;;;;;;;;;5072745;28;20191;-73
2022/03/11 06:18:06;;;;;;;11.40;8.93;;;;;;;;;;5072147;28;20225;-73
2022/03/11 06:20:33;;;;;;;11.25;8.73;;;;;;;;;;5072062;28;20689;-73
2022/03/11 06:23:00;;;;;;;9.02;7.10;;;;;;;;;;5070664;28;20205;-73
2022/03/11 06:25:29;;;;;;;10.65;7.43;;;;;;;;;;5072052;28;20224;-74
2022/03/11 06:27:56;;;;;;;9.38;7.57;;;;;;;;;;5072307;28;20217;-74
2022/03/11 06:30:23;;;;;;;12.68;8.68;;;;;;;;;;5055928;28;20203;-74
2022/03/11 06:32:51;;;;;;;11.65;8.35;;;;;;;;;;5068338;28;20198;-75
2022/03/11 06:35:19;;;;;;;11.43;7.28;;;;;;;;;;5070069;28;20194;-73
2022/03/11 06:37:47;;;;;;;11.13;8.32;;;;;;;;;;5066574;28;20225;-74
2022/03/11 06:40:14;;;;;;;13.02;7.95;;;;;;;;;;5069042;28;20692;-73
2022/03/11 06:42:43;;;;;;;13.93;9.30;;;;;;;;;;5073003;28;20665;-73
2022/03/11 06:45:11;;;;;;;12.38;8.30;;;;;;;;;;5063950;28;20556;-74
2022/03/11 06:47:38;;;;;;;12.88;8.90;;;;;;;;;;5069817;28;20221;-73
2022/03/11 06:50:06;;;;;;;9.38;7.88;;;;;;;;;;5067546;28;20936;-73
2022/03/11 06:52:33;;;;;;;12.27;8.80;;;;;;;;;;5066295;28;20198;-73
2022/03/11 06:55:00;;;;;;;11.55;9.48;;;;;;;;;;5071476;28;20204;-74
2022/03/11 06:57:27;;;;;;;11.40;8.02;;;;;;;;;;5071437;28;20218;-74
2022/03/11 06:59:55;;;;;;;11.50;8.50;;;;;;;;;;5057258;28;20195;-74
2022/03/11 07:02:23;;;;;;;12.52;8.93;;;;;;;;;;5071388;28;20203;-76
2022/03/11 07:04:50;;;;;;;19.17;10.48;;;;;;;;;;5069335;28;20198;-74
2022/03/11 07:07:17;;;;;;;13.93;8.45;;;;;;;;;;5069556;28;20202;-75
2022/03/11 07:09:44;;;;;;;12.63;9.73;;;;;;;;;;5071746;28;20190;-73
2022/03/11 07:12:11;;;;;;;21.20;8.95;;;;;;;;;;5069915;28;20194;-75
2022/03/11 07:14:38;;;;;;;18.38;10.63;;;;;;;;;;5065930;28;20202;-73
2022/03/11 07:17:07;;;;;;;10.48;9.18;;;;;;;;;;5069401;28;20215;-75
2022/03/11 07:19:34;;;;;;;12.35;8.25;;;;;;;;;;5070992;28;20190;-72
2022/03/11 07:22:02;;;;;;;12.32;9.15;;;;;;;;;;5066378;28;20194;-73
2022/03/11 07:24:30;;;;;;;13.23;9.18;;;;;;;;;;5071608;28;20317;-74
2022/03/11 07:26:57;;;;;;;14.02;8.98;;;;;;;;;;5065531;28;20197;-74
2022/03/11 07:29:24;;;;;;;12.18;9.32;;;;;;;;;;5065920;28;20286;-74
2022/03/11 07:31:51;;;;;;;11.23;7.55;;;;;;;;;;5068041;28;20193;-74
2022/03/11 07:34:20;;;;;;;15.45;8.88;;;;;;;;;;5070841;28;20182;-73
2022/03/11 07:36:48;;;;;;;15.85;10.38;;;;;;;;;;5066433;28;20198;-73
2022/03/11 07:39:15;;;;;;;14.50;9.70;;;;;;;;;;5067342;28;20671;-72
2022/03/11 07:41:42;;;;;;;12.68;9.48;;;;;;;;;;5070811;28;20200;-75
2022/03/11 07:44:09;;;;;;;14.73;8.82;;;;;;;;;;5069491;28;20221;-73
2022/03/11 07:46:36;;;;;;;12.02;9.65;;;;;;;;;;5064860;28;20289;-72
2022/03/11 07:49:04;;;;;;;11.50;8.70;;;;;;;;;;5066310;28;20191;-75
2022/03/11 07:51:32;;;;;;;12.20;8.60;;;;;;;;;;5064555;28;20186;-72
2022/03/11 07:53:59;;;;;;;9.85;7.28;;;;;;;;;;5072114;28;20192;-73
2022/03/11 07:56:26;;;;;;;13.73;10.05;;;;;;;;;;5078054;28;20198;-73
2022/03/11 07:58:55;;;;;;;12.70;9.43;;;;;;;;;;5070216;28;20305;-79
2022/03/11 08:01:23;;;;;;;11.57;8.30;;;;;;;;;;5062563;28;20692;-72
2022/03/11 08:03:50;;;;;;;12.13;8.95;;;;;;;;;;5070403;28;20194;-72
2022/03/11 08:06:17;;;;;;;11.57;9.70;;;;;;;;;;5067193;28;20223;-76
2022/03/11 08:08:46;;;;;;;13.32;9.23;;;;;;;;;;5066821;28;20276;-73
2022/03/11 08:11:14;;;;;;;11.57;8.82;;;;;;;;;;5063108;28;20194;-73
2022/03/11 08:13:42;;;;;;;11.57;8.10;;;;;;;;;;5064232;28;20268;-73
2022/03/11 08:16:10;;;;;;;13.43;9.38;;;;;;;;;;5070150;28;20194;-73
2022/03/11 08:18:37;;;;;;;12.25;8.75;;;;;;;;;;5071153;28;20228;-72
2022/03/11 08:21:04;;;;;;;10.13;8.20;;;;;;;;;;5073401;28;20277;-72
2022/03/11 08:23:31;;;;;;;10.95;7.60;;;;;;;;;;5069136;28;20316;-72
2022/03/11 08:26:00;;;;;;;9.60;7.95;;;;;;;;;;5085231;28;20193;-73
2022/03/11 08:28:27;;;;;;;10.75;8.55;;;;;;;;;;5076822;28;20207;-72
2022/03/11 08:30:55;;;;;;;13.02;9.50;;;;;;;;;;5071452;28;20182;-72
2022/03/11 08:33:24;;;;;;;10.70;8.95;;;;;;;;;;5071500;28;20190;-74
2022/03/11 08:35:52;;;;;;;12.27;9.15;;;;;;;;;;5064753;28;20286;-72
2022/03/11 08:38:20;;;;;;;10.88;8.43;;;;;;;;;;5071890;28;20214;-72
2022/03/11 08:40:47;;;;;;;10.23;8.60;;;;;;;;;;5069199;28;20197;-73
2022/03/11 08:43:15;;;;;;;13.48;9.10;;;;;;;;;;5067849;28;20204;-72
2022/03/11 08:45:43;;;;;;;10.60;8.80;;;;;;;;;;5069269;28;20186;-73
2022/03/11 08:48:10;;;;;;;10.27;7.13;;;;;;;;;;5076669;28;20206;-74
2022/03/11 08:50:37;;;;;;;12.27;9.00;;;;;;;;;;5069759;28;20194;-72
2022/03/11 08:53:04;;;;;;;13.82;8.80;;;;;;;;;;5064845;28;20213;-73
2022/03/11 08:55:32;;;;;;;9.60;7.72;;;;;;;;;;5070420;28;20195;-73
2022/03/11 08:57:59;;;;;;;11.13;8.73;;;;;;;;;;5070294;28;20210;-72
2022/03/11 09:00:27;;;;;;;10.50;7.68;;;;;;;;;;5065966;28;20677;-72
2022/03/11 09:02:54;;;;;;;11.35;8.55;;;;;;;;;;5068485;28;20645;-72
2022/03/11 09:05:22;;;;;;;10.52;8.90;;;;;;;;;;5067137;28;20190;-72
2022/03/11 09:07:51;;;;;;;10.45;9.25;;;;;;;;;;5062541;28;20684;-72
2022/03/11 09:10:19;;;;;;;8.65;7.70;;;;;;;;;;5066607;28;20194;-72
2022/03/11 09:12:47;;;;;;;9.93;8.10;;;;;;;;;;5069128;28;20676;-73
2022/03/11 09:15:14;;;;;;;10.88;8.40;;;;;;;;;;5068557;28;20198;-72
2022/03/11 09:17:45;;;;;;;10.45;8.50;;;;;;;;;;5068340;28;20230;-72
2022/03/11 09:20:14;;;;;;;16.35;8.73;;;;;;;;;;5070539;28;20722;-73
2022/03/11 09:22:41;;;;;;;12.38;7.38;;;;;;;;;;5070730;28;20688;-75
2022/03/11 09:25:09;;;;;;;12.48;9.18;;;;;;;;;;5068774;28;20870;-74
2022/03/11 09:27:37;;;;;;;12.05;9.00;;;;;;;;;;5069334;28;20269;-74
2022/03/11 09:30:04;;;;;;;8.52;7.65;;;;;;;;;;5063340;28;20543;-75
2022/03/11 09:32:31;;;;;;;12.23;8.65;;;;;;;;;;5066710;28;20198;-74
2022/03/11 09:35:00;;;;;;;12.82;9.70;;;;;;;;;;5068931;28;20198;-73
2022/03/11 09:37:27;;;;;;;10.57;8.30;;;;;;;;;;5064546;28;20615;-75
2022/03/11 09:39:54;;;;;;;11.30;9.18;;;;;;;;;;5074743;28;20198;-74
2022/03/11 09:42:22;;;;;;;10.50;9.05;;;;;;;;;;5069093;28;20186;-74
2022/03/11 09:44:53;;;;;;;16.70;9.75;;;;;;;;;;5065004;28;20198;-73
2022/03/11 09:47:20;;;;;;;11.40;9.10;;;;;;;;;;5072230;28;20205;-74
2022/03/11 09:49:47;;;;;;;10.55;8.80;;;;;;;;;;5074681;28;20285;-74
2022/03/11 09:52:16;;;;;;;8.75;7.78;;;;;;;;;;5071578;28;20190;-74
2022/03/11 09:54:45;;;;;;;11.40;8.90;;;;;;;;;;5075067;28;20194;-74
2022/03/11 09:57:12;;;;;;;10.18;8.93;;;;;;;;;;5093723;28;20251;-74
2022/03/11 09:59:39;;;;;;;10.35;8.02;;;;;;;;;;5077700;28;20218;-74
2022/03/11 10:02:12;;;;;;;8.55;7.75;;;;;;;;;;5077174;28;20202;-74
2022/03/11 10:04:45;;;;;;;9.23;7.82;;;;;;;;;;5070918;28;20448;-73
2022/03/11 10:07:22;;;;;;;13.65;8.35;;;;;;;;;;5067439;28;20198;-74
2022/03/11 10:09:49;;;;;;;8.80;7.70;;;;;;;;;;5078140;28;20198;-74
2022/03/11 10:12:21;;;;;;;8.52;7.72;;;;;;;;;;5082739;28;20557;-74
2022/03/11 10:14:55;;;;;;;9.40;7.65;;;;;;;;;;5072550;28;20194;-74
2022/03/11 10:17:22;;;;;;;11.35;8.57;;;;;;;;;;5074736;28;20198;-75
2022/03/11 10:20:02;;;;;;;10.20;8.80;;;;;;;;;;5072885;28;20230;-74
2022/03/11 10:22:31;;;;;;;10.52;8.32;;;;;;;;;;5070258;28;20801;-73
2022/03/11 10:25:00;;;;;;;12.05;8.43;;;;;;;;;;5070491;28;20218;-74
2022/03/11 10:27:27;;;;;;;11.88;9.77;;;;;;;;;;5073846;28;20209;-74
2022/03/11 10:29:57;;;;;;;10.40;8.48;;;;;;;;;;5066754;28;20201;-74
2022/03/11 10:32:25;;;;;;;10.07;8.38;;;;;;;;;;5071394;28;20201;-75
2022/03/11 10:34:52;;;;;;;11.55;8.73;;;;;;;;;;5067554;28;20190;-74
2022/03/11 10:37:19;;;;;;;13.50;9.75;;;;;;;;;;5074598;28;20281;-74
2022/03/11 10:39:49;;;;;;;14.13;8.50;;;;;;;;;;5068979;28;20703;-75
2022/03/11 10:42:18;;;;;;;12.05;8.93;;;;;;;;;;5073053;28;20194;-74
2022/03/11 10:44:55;;;;;;;9.82;8.40;;;;;;;;;;5069227;28;20569;-73
2022/03/11 10:47:23;;;;;;;14.95;11.05;;;;;;;;;;5071746;28;20501;-75
2022/03/11 10:49:51;;;;;;;11.02;8.25;;;;;;;;;;5067437;28;20297;-74
2022/03/11 10:52:29;;;;;;;9.68;8.65;;;;;;;;;;5067264;28;20212;-75
2022/03/11 10:54:57;;;;;;;8.48;7.05;;;;;;;;;;5064989;28;20198;-74
2022/03/11 10:57:34;;;;;;;8.68;7.55;;;;;;;;;;5067999;28;20202;-72
2022/03/11 11:00:16;;;;;;;12.57;9.38;;;;;;;;;;5063598;28;20308;-73
2022/03/11 11:02:44;;;;;;;10.23;9.23;;;;;;;;;;5065825;28;20194;-73
2022/03/11 11:05:12;;;;;;;11.32;8.77;;;;;;;;;;5068455;28;20195;-74
2022/03/11 11:07:41;;;;;;;13.40;9.27;;;;;;;;;;5065791;28;20627;-74
2022/03/11 11:10:10;;;;;;;11.13;9.65;;;;;;;;;;5065844;28;20251;-73
2022/03/11 11:12:37;;;;;;;14.65;9.60;;;;;;;;;;5068213;28;20206;-75
2022/03/11 11:15:04;;;;;;;11.23;8.77;;;;;;;;;;5058896;28;20572;-75
2022/03/11 11:17:33;;;;;;;10.98;8.30;;;;;;;;;;5066383;28;20202;-74
2022/03/11 11:20:02;;;;;;;10.80;8.00;;;;;;;;;;5069076;28;20655;-73
2022/03/11 11:22:30;;;;;;;12.43;9.30;;;;;;;;;;5065191;28;20201;-73
2022/03/11 11:24:57;;;;;;;15.13;8.30;;;;;;;;;;5068325;28;20222;-73
2022/03/11 11:27:26;;;;;;;11.63;8.27;;;;;;;;;;5067295;28;20194;-74
2022/03/11 11:29:53;;;;;;;10.30;7.82;;;;;;;;;;5065465;28;20209;-74
2022/03/11 11:32:20;;;;;;;9.38;8.38;;;;;;;;;;5050947;28;20198;-74
2022/03/11 11:34:48;;;;;;;9.90;7.45;;;;;;;;;;5061862;28;20206;-73
2022/03/11 11:37:36;;;;;;;12.90;7.80;;;;;;;;;;5061495;28;20194;-73
2022/03/11 11:40:18;;;;;;;11.10;8.27;;;;;;;;;;5070181;28;20214;-73
2022/03/11 11:43:12;;;;;;;9.75;7.13;;;;;;;;;;5067586;28;20202;-74
2022/03/11 11:45:42;;;;;;;10.50;8.35;;;;;;;;;;5065431;28;20197;-74
2022/03/11 11:48:42;;;;;;;8.52;6.47;;;;;;;;;;5062868;28;20287;-73
2022/03/11 11:51:10;;;;;;;8.95;6.90;;;;;;;;;;5066150;28;20201;-72
2022/03/11 11:53:40;;;;;;;8.93;7.32;;;;;;;;;;5064776;28;20200;-72
2022/03/11 11:56:27;;;;;;;18.05;8.10;;;;;;;;;;5067931;28;20267;-72
2022/03/11 11:58:56;;;;;;;13.40;8.20;;;;;;;;;;5061692;28;20217;-73
2022/03/11 12:01:42;;;;;;;9.23;7.72;;;;;;;;;;5061600;28;20197;-72
2022/03/11 12:04:22;;;;;;;9.02;7.05;;;;;;;;;;5067129;28;20565;-72
2022/03/11 12:06:56;;;;;;;13.55;8.57;;;;;;;;;;5070973;28;20752;-72
2022/03/11 12:09:45;;;;;;;9.43;7.78;;;;;;;;;;5060939;28;20205;-72
2022/03/11 12:12:39;;;;;;;9.30;7.78;;;;;;;;;;5063167;28;20194;-73
2022/03/11 12:15:18;;;;;;;9.07;7.40;;;;;;;;;;5064119;28;20665;-75
2022/03/11 12:17:46;;;;;;;8.13;7.15;;;;;;;;;;5066802;28;20205;-73
2022/03/11 12:20:25;;;;;;;10.43;8.68;;;;;;;;;;5062440;28;20225;-72
2022/03/11 12:22:53;;;;;;;11.00;7.95;;;;;;;;;;5067163;28;20194;-72
2022/03/11 12:25:22;;;;;;;10.95;9.05;;;;;;;;;;5069244;28;20226;-72
2022/03/11 12:27:57;;;;;;;10.55;7.78;;;;;;;;;;5070751;28;20217;-73
2022/03/11 12:30:26;;;;;;;10.98;7.30;;;;;;;;;;5068353;28;20271;-72
2022/03/11 12:32:53;;;;;;;8.63;7.18;;;;;;;;;;5064500;28;20198;-72
2022/03/11 12:35:21;;;;;;;10.00;8.07;;;;;;;;;;5069112;28;20202;-73
2022/03/11 12:37:48;;;;;;;11.05;7.72;;;;;;;;;;5061479;28;20193;-72
2022/03/11 12:40:15;;;;;;;11.00;7.97;;;;;;;;;;5070685;28;20814;-72
2022/03/11 12:42:43;;;;;;;9.60;6.97;;;;;;;;;;5070557;28;20190;-72
2022/03/11 12:45:11;;;;;;;12.20;7.95;;;;;;;;;;5054803;28;20205;-72
2022/03/11 12:47:40;;;;;;;10.63;7.65;;;;;;;;;;5065968;28;20603;-72
2022/03/11 12:50:09;;;;;;;9.45;7.70;;;;;;;;;;5069834;28;20198;-72
2022/03/11 12:52:39;;;;;;;10.43;7.30;;;;;;;;;;5064705;28;20191;-72
2022/03/11 12:55:20;;;;;;;12.27;7.30;;;;;;;;;;5070814;28;20725;-72
2022/03/11 12:57:50;;;;;;;10.73;7.65;;;;;;;;;;5070721;28;20229;-72
2022/03/11 13:00:20;;;;;;;12.10;7.97;;;;;;;;;;5054987;28;20691;-72
2022/03/11 13:02:50;;;;;;;8.10;6.80;;;;;;;;;;5067760;28;20194;-75
2022/03/11 13:05:21;;;;;;;12.77;7.45;;;;;;;;;;5070208;28;20191;-73
2022/03/11 13:07:48;;;;;;;9.15;7.13;;;;;;;;;;5066708;28;20202;-72
2022/03/11 13:10:16;;;;;;;9.98;7.38;;;;;;;;;;5069942;28;20202;-72
2022/03/11 13:12:43;;;;;;;8.48;6.72;;;;;;;;;;5070641;28;20691;-72
2022/03/11 13:15:11;;;;;;;10.80;7.45;;;;;;;;;;5062769;28;20195;-73
2022/03/11 13:17:42;;;;;;;12.48;7.13;;;;;;;;;;5063239;28;20194;-72
2022/03/11 13:20:24;;;;;;;9.98;6.22;;;;;;;;;;5071926;28;20245;-72
2022/03/11 13:22:51;;;;;;;11.52;7.55;;;;;;;;;;5069451;28;20190;-73
2022/03/11 13:25:24;;;;;;;9.25;6.85;;;;;;;;;;5054774;28;20226;-72
2022/03/11 13:27:51;;;;;;;13.32;8.20;;;;;;;;;;5053971;28;20206;-71
2022/03/11 13:30:29;;;;;;;11.18;7.05;;;;;;;;;;5070724;28;20202;-72
2022/03/11 13:32:56;;;;;;;9.43;6.93;;;;;;;;;;5070078;28;20602;-72
2022/03/11 13:35:33;;;;;;;10.55;6.45;;;;;;;;;;5071015;28;20205;-71
2022/03/11 13:38:00;;;;;;;11.18;6.80;;;;;;;;;;5072678;28;20198;-72
2022/03/11 13:40:27;;;;;;;9.30;8.02;;;;;;;;;;5074336;28;20229;-72
2022/03/11 13:42:55;;;;;;;7.93;6.97;;;;;;;;;;5074192;28;20652;-72
2022/03/11 13:45:27;;;;;;;9.02;6.72;;;;;;;;;;5067134;28;20211;-72
2022/03/11 13:48:07;;;;;;;10.73;8.23;;;;;;;;;;5075047;28;20194;-72
2022/03/11 13:50:38;;;;;;;14.90;8.68;;;;;;;;;;5073453;28;20190;-72
2022/03/11 13:53:06;;;;;;;10.27;7.70;;;;;;;;;;5071425;28;20190;-72
2022/03/11 13:55:34;;;;;;;12.43;7.38;;;;;;;;;;5072553;28;20202;-72
2022/03/11 13:58:14;;;;;;;12.95;8.18;;;;;;;;;;5072314;28;20194;-74
2022/03/11 14:00:41;;;;;;;10.82;6.78;;;;;;;;;;5071613;28;20640;-72
2022/03/11 14:03:14;;;;;;;10.85;8.15;;;;;;;;;;5072553;28;20194;-72
2022/03/11 14:05:44;;;;;;;11.40;8.40;;;;;;;;;;5069876;28;20652;-72
2022/03/11 14:08:13;;;;;;;11.82;7.70;;;;;;;;;;5058639;28;20198;-72
2022/03/11 14:10:42;;;;;;;11.50;6.93;;;;;;;;;;5063503;28;20205;-73
2022/03/11 14:13:10;;;;;;;12.45;8.10;;;;;;;;;;5083586;28;20636;-73
2022/03/11 14:15:38;;;;;;;8.57;6.68;;;;;;;;;;5067571;28;20198;-73
2022/03/11 14:18:08;;;;;;;12.13;7.20;;;;;;;;;;5069479;28;20198;-73
2022/03/11 14:20:35;;;;;;;9.05;6.70;;;;;;;;;;5069156;28;20228;-74
2022/03/11 14:23:03;;;;;;;10.25;7.63;;;;;;;;;;5058444;28;20199;-73
2022/03/11 14:25:31;;;;;;;8.73;7.07;;;;;;;;;;5066827;28;20238;-73
2022/03/11 14:27:58;;;;;;;9.63;7.72;;;;;;;;;;5067724;28;20194;-73
2022/03/11 14:30:25;;;;;;;10.43;7.35;;;;;;;;;;5065961;28;20581;-73
2022/03/11 14:32:52;;;;;;;9.88;7.82;;;;;;;;;;5069901;28;20255;-72
2022/03/11 14:35:19;;;;;;;10.82;7.85;;;;;;;;;;5068845;28;20190;-73
2022/03/11 14:37:47;;;;;;;9.55;7.10;;;;;;;;;;5068765;28;20205;-72
2022/03/11 14:40:15;;;;;;;8.52;7.03;;;;;;;;;;5066744;28;20233;-74
2022/03/11 14:42:43;;;;;;;9.05;7.13;;;;;;;;;;5067476;28;20323;-74
2022/03/11 14:45:11;;;;;;;9.30;7.45;;;;;;;;;;5064187;28;20202;-74